sensor_id;sensor_type;location;lat;lon;timestamp;P1;durP1;ratioP1;P2;durP2;ratioP2
19754;SDS011;10036;47.812;9.274;2023-12-28T00:01:40;17.83;;;11.00;;
19754;SDS011;10036;47.812;9.274;2023-12-28T00:04:06;17.63;;;11.02;;
19754;SDS011;10036;47.812;9.274;2023-12-28T00:06:33;17.52;;;10.98;;
19754;SDS011;10036;47.812;9.274;2023-12-28T00:09:01;17.70;;;10.60;;
19754;SDS011;10036;47.812;9.274;2023-12-28T00:11:29;17.00;;;10.30;;
19754;SDS011;10036;47.812;9.274;2023-12-28T00:13:56;15.30;;;9.93;;
19754;SDS011;10036;47.812;9.274;2023-12-28T00:16:23;20.60;;;10.63;;
19754;SDS011;10036;47.812;9.274;2023-12-28T00:18:49;16.60;;;10.38;;
19754;SDS011;10036;47.812;9.274;2023-12-28T00:21:16;15.43;;;9.70;;
19754;SDS011;10036;47.812;9.274;2023-12-28T00:23:43;14.85;;;8.60;;
19754;SDS011;10036;47.812;9.274;2023-12-28T00:26:11;12.73;;;9.07;;
19754;SDS011;10036;47.812;9.274;2023-12-28T00:28:38;17.23;;;8.80;;
19754;SDS011;10036;47.812;9.274;2023-12-28T00:31:05;13.77;;;8.40;;
19754;SDS011;10036;47.812;9.274;2023-12-28T00:33:32;16.87;;;8.93;;
19754;SDS011;10036;47.812;9.274;2023-12-28T00:35:59;15.75;;;9.70;;
19754;SDS011;10036;47.812;9.274;2023-12-28T00:38:26;14.33;;;8.77;;
19754;SDS011;10036;47.812;9.274;2023-12-28T00:40:53;13.37;;;8.73;;
19754;SDS011;10036;47.812;9.274;2023-12-28T00:43:21;13.50;;;8.32;;
19754;SDS011;10036;47.812;9.274;2023-12-28T00:45:48;23.63;;;10.68;;
19754;SDS011;10036;47.812;9.274;2023-12-28T00:48:14;19.73;;;10.67;;
19754;SDS011;10036;47.812;9.274;2023-12-28T00:50:41;20.40;;;10.90;;
19754;SDS011;10036;47.812;9.274;2023-12-28T00:53:08;19.43;;;10.23;;
19754;SDS011;10036;47.812;9.274;2023-12-28T00:55:52;18.30;;;9.47;;
19754;SDS011;10036;47.812;9.274;2023-12-28T00:58:20;15.07;;;9.03;;
19754;SDS011;10036;47.812;9.274;2023-12-28T01:00:47;17.50;;;9.95;;
19754;SDS011;10036;47.812;9.274;2023-12-28T01:03:18;17.35;;;10.00;;
19754;SDS011;10036;47.812;9.274;2023-12-28T01:05:45;14.80;;;9.93;;
19754;SDS011;10036;47.812;9.274;2023-12-28T01:08:15;17.03;;;9.83;;
19754;SDS011;10036;47.812;9.274;2023-12-28T01:10:42;17.75;;;10.00;;
19754;SDS011;10036;47.812;9.274;2023-12-28T01:13:09;18.60;;;9.43;;
19754;SDS011;10036;47.812;9.274;2023-12-28T01:15:36;13.17;;;8.90;;
19754;SDS011;10036;47.812;9.274;2023-12-28T01:18:03;16.40;;;9.30;;
19754;SDS011;10036;47.812;9.274;2023-12-28T01:20:30;14.73;;;8.50;;
19754;SDS011;10036;47.812;9.274;2023-12-28T01:22:57;15.60;;;8.45;;
19754;SDS011;10036;47.812;9.274;2023-12-28T01:25:24;12.63;;;8.18;;
19754;SDS011;10036;47.812;9.274;2023-12-28T01:27:51;15.52;;;8.55;;
19754;SDS011;10036;47.812;9.274;2023-12-28T01:30:18;13.87;;;8.40;;
19754;SDS011;10036;47.812;9.274;2023-12-28T01:32:46;16.20;;;8.97;;
19754;SDS011;10036;47.812;9.274;2023-12-28T01:35:13;14.68;;;8.60;;
19754;SDS011;10036;47.812;9.274;2023-12-28T01:37:40;13.32;;;8.77;;
19754;SDS011;10036;47.812;9.274;2023-12-28T01:40:07;14.43;;;8.70;;
19754;SDS011;10036;47.812;9.274;2023-12-28T01:42:35;15.57;;;9.20;;
19754;SDS011;10036;47.812;9.274;2023-12-28T01:45:02;15.00;;;8.50;;
19754;SDS011;10036;47.812;9.274;2023-12-28T01:47:29;13.90;;;8.73;;
19754;SDS011;10036;47.812;9.274;2023-12-28T01:49:58;15.27;;;8.30;;
19754;SDS011;10036;47.812;9.274;2023-12-28T01:52:26;18.77;;;8.77;;
19754;SDS011;10036;47.812;9.274;2023-12-28T01:54:54;13.07;;;8.20;;
19754;SDS011;10036;47.812;9.274;2023-12-28T01:57:22;13.48;;;8.55;;
19754;SDS011;10036;47.812;9.274;2023-12-28T01:59:49;13.00;;;7.82;;
19754;SDS011;10036;47.812;9.274;2023-12-28T02:02:16;13.33;;;8.20;;
19754;SDS011;10036;47.812;9.274;2023-12-28T02:04:43;16.17;;;8.75;;
19754;SDS011;10036;47.812;9.274;2023-12-28T02:07:12;12.30;;;8.13;;
19754;SDS011;10036;47.812;9.274;2023-12-28T02:09:40;12.93;;;8.47;;
19754;SDS011;10036;47.812;9.274;2023-12-28T02:12:07;11.95;;;7.95;;
19754;SDS011;10036;47.812;9.274;2023-12-28T02:14:34;10.97;;;7.77;;
19754;SDS011;10036;47.812;9.274;2023-12-28T02:17:03;13.02;;;8.30;;
19754;SDS011;10036;47.812;9.274;2023-12-28T02:19:39;12.80;;;8.40;;
19754;SDS011;10036;47.812;9.274;2023-12-28T02:22:18;11.53;;;7.93;;
19754;SDS011;10036;47.812;9.274;2023-12-28T02:25:06;11.20;;;7.70;;
19754;SDS011;10036;47.812;9.274;2023-12-28T02:27:35;14.47;;;7.90;;
19754;SDS011;10036;47.812;9.274;2023-12-28T02:30:04;11.97;;;8.13;;
19754;SDS011;10036;47.812;9.274;2023-12-28T02:32:36;11.60;;;7.50;;
19754;SDS011;10036;47.812;9.274;2023-12-28T02:35:12;11.80;;;8.25;;
19754;SDS011;10036;47.812;9.274;2023-12-28T02:37:43;11.57;;;8.07;;
19754;SDS011;10036;47.812;9.274;2023-12-28T02:40:14;15.07;;;8.15;;
19754;SDS011;10036;47.812;9.274;2023-12-28T02:42:43;15.05;;;8.88;;
19754;SDS011;10036;47.812;9.274;2023-12-28T02:45:08;16.42;;;8.52;;
19754;SDS011;10036;47.812;9.274;2023-12-28T02:47:35;16.40;;;8.20;;
19754;SDS011;10036;47.812;9.274;2023-12-28T02:50:02;13.48;;;7.78;;
19754;SDS011;10036;47.812;9.274;2023-12-28T02:52:30;13.23;;;8.20;;
19754;SDS011;10036;47.812;9.274;2023-12-28T02:54:57;13.05;;;8.32;;
19754;SDS011;10036;47.812;9.274;2023-12-28T02:57:25;12.75;;;8.07;;
19754;SDS011;10036;47.812;9.274;2023-12-28T02:59:52;12.20;;;8.47;;
19754;SDS011;10036;47.812;9.274;2023-12-28T03:02:18;11.63;;;8.45;;
19754;SDS011;10036;47.812;9.274;2023-12-28T03:04:45;15.25;;;8.68;;
19754;SDS011;10036;47.812;9.274;2023-12-28T03:07:12;16.03;;;9.37;;
19754;SDS011;10036;47.812;9.274;2023-12-28T03:09:39;17.50;;;9.88;;
19754;SDS011;10036;47.812;9.274;2023-12-28T03:12:06;18.00;;;9.43;;
19754;SDS011;10036;47.812;9.274;2023-12-28T03:14:34;15.67;;;8.87;;
19754;SDS011;10036;47.812;9.274;2023-12-28T03:17:01;16.35;;;8.60;;
19754;SDS011;10036;47.812;9.274;2023-12-28T03:19:28;16.10;;;8.80;;
19754;SDS011;10036;47.812;9.274;2023-12-28T03:21:55;13.73;;;8.93;;
19754;SDS011;10036;47.812;9.274;2023-12-28T03:24:22;15.33;;;8.80;;
19754;SDS011;10036;47.812;9.274;2023-12-28T03:26:49;12.00;;;8.40;;
19754;SDS011;10036;47.812;9.274;2023-12-28T03:29:16;14.93;;;8.67;;
19754;SDS011;10036;47.812;9.274;2023-12-28T03:31:44;14.55;;;8.60;;
19754;SDS011;10036;47.812;9.274;2023-12-28T03:34:11;15.17;;;9.00;;
19754;SDS011;10036;47.812;9.274;2023-12-28T03:36:37;16.27;;;9.13;;
19754;SDS011;10036;47.812;9.274;2023-12-28T03:39:04;15.20;;;9.38;;
19754;SDS011;10036;47.812;9.274;2023-12-28T03:41:31;19.73;;;10.07;;
19754;SDS011;10036;47.812;9.274;2023-12-28T03:43:58;17.43;;;9.77;;
19754;SDS011;10036;47.812;9.274;2023-12-28T03:46:25;14.77;;;9.00;;
19754;SDS011;10036;47.812;9.274;2023-12-28T03:48:54;16.08;;;9.68;;
19754;SDS011;10036;47.812;9.274;2023-12-28T03:51:20;17.23;;;9.50;;
19754;SDS011;10036;47.812;9.274;2023-12-28T03:53:47;17.63;;;10.13;;
19754;SDS011;10036;47.812;9.274;2023-12-28T03:56:18;18.67;;;10.47;;
19754;SDS011;10036;47.812;9.274;2023-12-28T03:58:46;22.00;;;11.07;;
19754;SDS011;10036;47.812;9.274;2023-12-28T04:01:13;18.30;;;10.67;;
19754;SDS011;10036;47.812;9.274;2023-12-28T04:03:40;21.55;;;11.45;;
19754;SDS011;10036;47.812;9.274;2023-12-28T04:06:08;25.03;;;10.67;;
19754;SDS011;10036;47.812;9.274;2023-12-28T04:08:35;20.77;;;10.67;;
19754;SDS011;10036;47.812;9.274;2023-12-28T04:11:02;18.63;;;9.90;;
19754;SDS011;10036;47.812;9.274;2023-12-28T04:13:28;18.10;;;9.63;;
19754;SDS011;10036;47.812;9.274;2023-12-28T04:15:55;18.77;;;9.53;;
19754;SDS011;10036;47.812;9.274;2023-12-28T04:18:22;18.60;;;9.20;;
19754;SDS011;10036;47.812;9.274;2023-12-28T04:20:49;15.33;;;9.33;;
19754;SDS011;10036;47.812;9.274;2023-12-28T04:23:17;16.20;;;9.03;;
19754;SDS011;10036;47.812;9.274;2023-12-28T04:25:44;15.27;;;9.00;;
19754;SDS011;10036;47.812;9.274;2023-12-28T04:28:11;14.77;;;8.80;;
19754;SDS011;10036;47.812;9.274;2023-12-28T04:30:38;13.10;;;8.80;;
19754;SDS011;10036;47.812;9.274;2023-12-28T04:33:04;13.25;;;8.70;;
19754;SDS011;10036;47.812;9.274;2023-12-28T04:35:31;14.80;;;9.43;;
19754;SDS011;10036;47.812;9.274;2023-12-28T04:37:58;14.63;;;9.90;;
19754;SDS011;10036;47.812;9.274;2023-12-28T04:40:26;24.73;;;12.23;;
19754;SDS011;10036;47.812;9.274;2023-12-28T04:42:53;20.20;;;12.17;;
19754;SDS011;10036;47.812;9.274;2023-12-28T04:45:20;17.53;;;10.23;;
19754;SDS011;10036;47.812;9.274;2023-12-28T04:47:48;16.23;;;9.77;;
19754;SDS011;10036;47.812;9.274;2023-12-28T04:50:14;13.33;;;8.90;;
19754;SDS011;10036;47.812;9.274;2023-12-28T04:52:41;18.20;;;10.97;;
19754;SDS011;10036;47.812;9.274;2023-12-28T04:55:08;17.77;;;9.90;;
19754;SDS011;10036;47.812;9.274;2023-12-28T04:57:36;16.30;;;10.00;;
19754;SDS011;10036;47.812;9.274;2023-12-28T05:00:04;17.50;;;10.80;;
19754;SDS011;10036;47.812;9.274;2023-12-28T05:02:31;17.07;;;10.33;;
19754;SDS011;10036;47.812;9.274;2023-12-28T05:04:58;20.92;;;10.93;;
19754;SDS011;10036;47.812;9.274;2023-12-28T05:07:25;20.40;;;12.15;;
19754;SDS011;10036;47.812;9.274;2023-12-28T05:09:52;18.37;;;10.70;;
19754;SDS011;10036;47.812;9.274;2023-12-28T05:12:19;17.83;;;11.13;;
19754;SDS011;10036;47.812;9.274;2023-12-28T05:14:47;17.47;;;10.50;;
19754;SDS011;10036;47.812;9.274;2023-12-28T05:17:14;15.57;;;10.37;;
19754;SDS011;10036;47.812;9.274;2023-12-28T05:19:41;18.23;;;10.05;;
19754;SDS011;10036;47.812;9.274;2023-12-28T05:22:08;17.53;;;9.97;;
19754;SDS011;10036;47.812;9.274;2023-12-28T05:24:36;17.73;;;10.23;;
19754;SDS011;10036;47.812;9.274;2023-12-28T05:27:03;17.87;;;9.13;;
19754;SDS011;10036;47.812;9.274;2023-12-28T05:29:30;15.27;;;9.10;;
19754;SDS011;10036;47.812;9.274;2023-12-28T05:31:58;14.07;;;9.47;;
19754;SDS011;10036;47.812;9.274;2023-12-28T05:34:25;20.93;;;9.90;;
19754;SDS011;10036;47.812;9.274;2023-12-28T05:36:52;14.43;;;9.10;;
19754;SDS011;10036;47.812;9.274;2023-12-28T05:39:19;13.47;;;9.00;;
19754;SDS011;10036;47.812;9.274;2023-12-28T05:41:45;16.23;;;9.30;;
19754;SDS011;10036;47.812;9.274;2023-12-28T05:44:13;16.70;;;9.73;;
19754;SDS011;10036;47.812;9.274;2023-12-28T05:46:40;18.00;;;10.33;;
19754;SDS011;10036;47.812;9.274;2023-12-28T05:49:08;13.87;;;9.30;;
19754;SDS011;10036;47.812;9.274;2023-12-28T05:51:38;15.88;;;9.38;;
19754;SDS011;10036;47.812;9.274;2023-12-28T05:54:06;18.02;;;9.50;;
19754;SDS011;10036;47.812;9.274;2023-12-28T05:56:33;14.63;;;9.30;;
19754;SDS011;10036;47.812;9.274;2023-12-28T05:59:00;13.57;;;8.67;;
19754;SDS011;10036;47.812;9.274;2023-12-28T06:01:27;15.37;;;8.97;;
19754;SDS011;10036;47.812;9.274;2023-12-28T06:03:54;17.03;;;9.50;;
19754;SDS011;10036;47.812;9.274;2023-12-28T06:06:22;13.85;;;9.27;;
19754;SDS011;10036;47.812;9.274;2023-12-28T06:08:49;14.27;;;9.07;;
19754;SDS011;10036;47.812;9.274;2023-12-28T06:11:16;13.83;;;9.40;;
19754;SDS011;10036;47.812;9.274;2023-12-28T06:13:43;12.40;;;8.70;;
19754;SDS011;10036;47.812;9.274;2023-12-28T06:16:10;15.33;;;8.30;;
19754;SDS011;10036;47.812;9.274;2023-12-28T06:18:36;12.80;;;8.40;;
19754;SDS011;10036;47.812;9.274;2023-12-28T06:21:03;12.93;;;8.95;;
19754;SDS011;10036;47.812;9.274;2023-12-28T06:23:33;12.03;;;8.53;;
19754;SDS011;10036;47.812;9.274;2023-12-28T06:26:03;12.20;;;8.53;;
19754;SDS011;10036;47.812;9.274;2023-12-28T06:28:31;14.10;;;8.97;;
19754;SDS011;10036;47.812;9.274;2023-12-28T06:30:58;14.00;;;8.63;;
19754;SDS011;10036;47.812;9.274;2023-12-28T06:33:26;13.73;;;9.13;;
19754;SDS011;10036;47.812;9.274;2023-12-28T06:35:53;12.43;;;8.93;;
19754;SDS011;10036;47.812;9.274;2023-12-28T06:38:23;12.90;;;9.13;;
19754;SDS011;10036;47.812;9.274;2023-12-28T06:40:51;15.70;;;10.20;;
19754;SDS011;10036;47.812;9.274;2023-12-28T06:43:18;18.43;;;10.13;;
19754;SDS011;10036;47.812;9.274;2023-12-28T06:45:45;16.67;;;9.67;;
19754;SDS011;10036;47.812;9.274;2023-12-28T06:48:11;15.43;;;9.85;;
19754;SDS011;10036;47.812;9.274;2023-12-28T06:50:38;15.07;;;9.47;;
19754;SDS011;10036;47.812;9.274;2023-12-28T06:53:05;12.83;;;8.83;;
19754;SDS011;10036;47.812;9.274;2023-12-28T06:55:32;17.67;;;9.37;;
19754;SDS011;10036;47.812;9.274;2023-12-28T06:58:00;15.60;;;9.73;;
19754;SDS011;10036;47.812;9.274;2023-12-28T07:00:28;12.82;;;8.15;;
19754;SDS011;10036;47.812;9.274;2023-12-28T07:02:55;12.68;;;8.50;;
19754;SDS011;10036;47.812;9.274;2023-12-28T07:05:21;11.87;;;8.07;;
19754;SDS011;10036;47.812;9.274;2023-12-28T07:07:48;11.63;;;8.23;;
19754;SDS011;10036;47.812;9.274;2023-12-28T07:10:15;12.10;;;8.33;;
19754;SDS011;10036;47.812;9.274;2023-12-28T07:12:42;14.30;;;7.80;;
19754;SDS011;10036;47.812;9.274;2023-12-28T07:15:10;10.43;;;7.05;;
19754;SDS011;10036;47.812;9.274;2023-12-28T07:17:39;14.82;;;9.30;;
19754;SDS011;10036;47.812;9.274;2023-12-28T07:20:07;12.95;;;8.45;;
19754;SDS011;10036;47.812;9.274;2023-12-28T07:22:35;13.43;;;9.20;;
19754;SDS011;10036;47.812;9.274;2023-12-28T07:25:03;22.15;;;11.52;;
19754;SDS011;10036;47.812;9.274;2023-12-28T07:27:31;19.83;;;10.97;;
19754;SDS011;10036;47.812;9.274;2023-12-28T07:29:58;18.90;;;10.30;;
19754;SDS011;10036;47.812;9.274;2023-12-28T07:32:26;19.83;;;11.07;;
19754;SDS011;10036;47.812;9.274;2023-12-28T07:34:54;20.45;;;11.80;;
19754;SDS011;10036;47.812;9.274;2023-12-28T07:37:21;20.65;;;11.27;;
19754;SDS011;10036;47.812;9.274;2023-12-28T07:39:48;23.85;;;12.32;;
19754;SDS011;10036;47.812;9.274;2023-12-28T07:42:15;18.90;;;10.50;;
19754;SDS011;10036;47.812;9.274;2023-12-28T07:44:42;17.17;;;10.63;;
19754;SDS011;10036;47.812;9.274;2023-12-28T07:47:09;14.27;;;9.77;;
19754;SDS011;10036;47.812;9.274;2023-12-28T07:49:38;15.73;;;10.68;;
19754;SDS011;10036;47.812;9.274;2023-12-28T07:52:05;15.60;;;9.75;;
19754;SDS011;10036;47.812;9.274;2023-12-28T07:54:32;15.75;;;9.55;;
19754;SDS011;10036;47.812;9.274;2023-12-28T07:56:59;15.77;;;10.07;;
19754;SDS011;10036;47.812;9.274;2023-12-28T07:59:26;15.50;;;9.75;;
19754;SDS011;10036;47.812;9.274;2023-12-28T08:01:53;17.10;;;9.75;;
19754;SDS011;10036;47.812;9.274;2023-12-28T08:04:20;14.57;;;9.65;;
19754;SDS011;10036;47.812;9.274;2023-12-28T08:06:48;14.75;;;10.35;;
19754;SDS011;10036;47.812;9.274;2023-12-28T08:09:15;21.45;;;12.20;;
19754;SDS011;10036;47.812;9.274;2023-12-28T08:11:42;23.08;;;11.63;;
19754;SDS011;10036;47.812;9.274;2023-12-28T08:14:09;22.75;;;12.40;;
19754;SDS011;10036;47.812;9.274;2023-12-28T08:16:35;24.08;;;11.43;;
19754;SDS011;10036;47.812;9.274;2023-12-28T08:19:02;20.77;;;11.45;;
19754;SDS011;10036;47.812;9.274;2023-12-28T08:21:29;21.17;;;12.25;;
19754;SDS011;10036;47.812;9.274;2023-12-28T08:23:57;25.45;;;10.98;;
19754;SDS011;10036;47.812;9.274;2023-12-28T08:26:24;19.73;;;11.27;;
19754;SDS011;10036;47.812;9.274;2023-12-28T08:28:51;16.13;;;10.23;;
19754;SDS011;10036;47.812;9.274;2023-12-28T08:31:18;14.95;;;10.20;;
19754;SDS011;10036;47.812;9.274;2023-12-28T08:33:45;17.98;;;10.07;;
19754;SDS011;10036;47.812;9.274;2023-12-28T08:36:12;14.77;;;10.05;;
19754;SDS011;10036;47.812;9.274;2023-12-28T08:38:38;15.82;;;10.20;;
19754;SDS011;10036;47.812;9.274;2023-12-28T08:41:07;16.20;;;9.18;;
19754;SDS011;10036;47.812;9.274;2023-12-28T08:43:34;14.60;;;9.35;;
19754;SDS011;10036;47.812;9.274;2023-12-28T08:46:01;16.38;;;9.05;;
19754;SDS011;10036;47.812;9.274;2023-12-28T08:48:28;17.17;;;9.88;;
19754;SDS011;10036;47.812;9.274;2023-12-28T08:50:55;14.93;;;9.80;;
19754;SDS011;10036;47.812;9.274;2023-12-28T08:53:22;16.80;;;10.07;;
19754;SDS011;10036;47.812;9.274;2023-12-28T08:55:49;16.98;;;10.65;;
19754;SDS011;10036;47.812;9.274;2023-12-28T08:58:17;14.15;;;10.07;;
19754;SDS011;10036;47.812;9.274;2023-12-28T09:00:44;18.52;;;11.85;;
19754;SDS011;10036;47.812;9.274;2023-12-28T09:03:12;21.40;;;12.90;;
19754;SDS011;10036;47.812;9.274;2023-12-28T09:05:39;20.60;;;13.05;;
19754;SDS011;10036;47.812;9.274;2023-12-28T09:08:06;21.05;;;12.55;;
19754;SDS011;10036;47.812;9.274;2023-12-28T09:10:34;16.42;;;10.70;;
19754;SDS011;10036;47.812;9.274;2023-12-28T09:13:00;23.40;;;12.35;;
19754;SDS011;10036;47.812;9.274;2023-12-28T09:15:31;15.07;;;9.95;;
19754;SDS011;10036;47.812;9.274;2023-12-28T09:17:58;14.15;;;9.15;;
19754;SDS011;10036;47.812;9.274;2023-12-28T09:20:25;16.77;;;8.77;;
19754;SDS011;10036;47.812;9.274;2023-12-28T09:22:51;12.98;;;8.93;;
19754;SDS011;10036;47.812;9.274;2023-12-28T09:25:21;10.60;;;7.60;;
19754;SDS011;10036;47.812;9.274;2023-12-28T09:27:48;12.55;;;8.18;;
19754;SDS011;10036;47.812;9.274;2023-12-28T09:30:15;13.20;;;8.73;;
19754;SDS011;10036;47.812;9.274;2023-12-28T09:32:43;12.60;;;8.52;;
19754;SDS011;10036;47.812;9.274;2023-12-28T09:35:10;12.48;;;7.97;;
19754;SDS011;10036;47.812;9.274;2023-12-28T09:37:37;19.60;;;9.88;;
19754;SDS011;10036;47.812;9.274;2023-12-28T09:40:04;16.75;;;9.95;;
19754;SDS011;10036;47.812;9.274;2023-12-28T09:42:36;16.08;;;9.85;;
19754;SDS011;10036;47.812;9.274;2023-12-28T09:45:06;13.73;;;9.02;;
19754;SDS011;10036;47.812;9.274;2023-12-28T09:47:35;14.15;;;9.05;;
19754;SDS011;10036;47.812;9.274;2023-12-28T09:50:04;11.10;;;8.68;;
19754;SDS011;10036;47.812;9.274;2023-12-28T09:52:31;15.82;;;9.73;;
19754;SDS011;10036;47.812;9.274;2023-12-28T09:54:58;16.08;;;10.45;;
19754;SDS011;10036;47.812;9.274;2023-12-28T09:57:25;16.15;;;10.45;;
19754;SDS011;10036;47.812;9.274;2023-12-28T09:59:52;16.98;;;10.75;;
19754;SDS011;10036;47.812;9.274;2023-12-28T10:02:19;16.65;;;11.10;;
19754;SDS011;10036;47.812;9.274;2023-12-28T10:04:47;17.23;;;11.43;;
19754;SDS011;10036;47.812;9.274;2023-12-28T10:07:15;15.27;;;11.38;;
19754;SDS011;10036;47.812;9.274;2023-12-28T10:09:42;13.15;;;10.27;;
19754;SDS011;10036;47.812;9.274;2023-12-28T10:12:08;22.77;;;12.13;;
19754;SDS011;10036;47.812;9.274;2023-12-28T10:14:36;16.23;;;10.95;;
19754;SDS011;10036;47.812;9.274;2023-12-28T10:17:03;20.50;;;11.35;;
19754;SDS011;10036;47.812;9.274;2023-12-28T10:19:30;18.58;;;10.70;;
19754;SDS011;10036;47.812;9.274;2023-12-28T10:21:57;19.48;;;11.70;;
19754;SDS011;10036;47.812;9.274;2023-12-28T10:24:26;18.42;;;10.90;;
19754;SDS011;10036;47.812;9.274;2023-12-28T10:26:53;17.38;;;9.93;;
19754;SDS011;10036;47.812;9.274;2023-12-28T10:29:19;19.23;;;12.38;;
19754;SDS011;10036;47.812;9.274;2023-12-28T10:31:46;21.20;;;12.65;;
19754;SDS011;10036;47.812;9.274;2023-12-28T10:34:16;20.30;;;11.23;;
19754;SDS011;10036;47.812;9.274;2023-12-28T10:36:44;18.50;;;11.45;;
19754;SDS011;10036;47.812;9.274;2023-12-28T10:39:14;15.73;;;10.05;;
19754;SDS011;10036;47.812;9.274;2023-12-28T10:41:47;16.95;;;9.00;;
19754;SDS011;10036;47.812;9.274;2023-12-28T10:44:16;12.65;;;8.25;;
19754;SDS011;10036;47.812;9.274;2023-12-28T10:46:47;15.20;;;7.93;;
19754;SDS011;10036;47.812;9.274;2023-12-28T10:49:17;14.25;;;8.35;;
19754;SDS011;10036;47.812;9.274;2023-12-28T10:51:49;13.48;;;8.50;;
19754;SDS011;10036;47.812;9.274;2023-12-28T10:54:20;11.07;;;8.18;;
19754;SDS011;10036;47.812;9.274;2023-12-28T10:57:01;18.27;;;11.70;;
19754;SDS011;10036;47.812;9.274;2023-12-28T10:59:37;17.42;;;11.25;;
19754;SDS011;10036;47.812;9.274;2023-12-28T11:02:10;14.43;;;10.25;;
19754;SDS011;10036;47.812;9.274;2023-12-28T11:04:43;13.45;;;9.73;;
19754;SDS011;10036;47.812;9.274;2023-12-28T11:07:14;21.85;;;12.35;;
19754;SDS011;10036;47.812;9.274;2023-12-28T11:09:43;21.00;;;12.40;;
19754;SDS011;10036;47.812;9.274;2023-12-28T11:12:12;15.60;;;10.65;;
19754;SDS011;10036;47.812;9.274;2023-12-28T11:14:43;14.82;;;8.93;;
19754;SDS011;10036;47.812;9.274;2023-12-28T11:17:11;12.57;;;8.20;;
19754;SDS011;10036;47.812;9.274;2023-12-28T11:19:41;11.23;;;8.48;;
19754;SDS011;10036;47.812;9.274;2023-12-28T11:22:08;16.65;;;10.13;;
19754;SDS011;10036;47.812;9.274;2023-12-28T11:24:36;14.63;;;9.77;;
19754;SDS011;10036;47.812;9.274;2023-12-28T11:27:03;14.90;;;10.15;;
19754;SDS011;10036;47.812;9.274;2023-12-28T11:29:32;15.23;;;10.65;;
19754;SDS011;10036;47.812;9.274;2023-12-28T11:31:59;14.80;;;10.60;;
19754;SDS011;10036;47.812;9.274;2023-12-28T11:34:27;15.60;;;10.10;;
19754;SDS011;10036;47.812;9.274;2023-12-28T11:36:55;14.73;;;10.00;;
19754;SDS011;10036;47.812;9.274;2023-12-28T11:39:29;20.55;;;10.70;;
19754;SDS011;10036;47.812;9.274;2023-12-28T11:42:01;16.20;;;11.02;;
19754;SDS011;10036;47.812;9.274;2023-12-28T11:44:29;15.00;;;10.05;;
19754;SDS011;10036;47.812;9.274;2023-12-28T11:46:57;13.50;;;10.13;;
19754;SDS011;10036;47.812;9.274;2023-12-28T11:49:25;10.93;;;8.68;;
19754;SDS011;10036;47.812;9.274;2023-12-28T11:51:54;14.07;;;10.88;;
19754;SDS011;10036;47.812;9.274;2023-12-28T11:54:23;15.43;;;10.85;;
19754;SDS011;10036;47.812;9.274;2023-12-28T11:56:50;17.63;;;11.65;;
19754;SDS011;10036;47.812;9.274;2023-12-28T11:59:17;21.02;;;11.70;;
19754;SDS011;10036;47.812;9.274;2023-12-28T12:01:48;20.40;;;11.85;;
19754;SDS011;10036;47.812;9.274;2023-12-28T12:04:17;17.00;;;11.32;;
19754;SDS011;10036;47.812;9.274;2023-12-28T12:06:44;24.95;;;15.35;;
19754;SDS011;10036;47.812;9.274;2023-12-28T12:09:12;19.98;;;13.43;;
19754;SDS011;10036;47.812;9.274;2023-12-28T12:11:39;20.92;;;12.93;;
19754;SDS011;10036;47.812;9.274;2023-12-28T12:14:07;26.42;;;15.43;;
19754;SDS011;10036;47.812;9.274;2023-12-28T12:16:35;38.50;;;18.50;;
19754;SDS011;10036;47.812;9.274;2023-12-28T12:19:02;36.85;;;19.23;;
19754;SDS011;10036;47.812;9.274;2023-12-28T12:21:30;38.60;;;18.95;;
19754;SDS011;10036;47.812;9.274;2023-12-28T12:23:57;30.55;;;16.63;;
19754;SDS011;10036;47.812;9.274;2023-12-28T12:26:24;25.15;;;15.35;;
19754;SDS011;10036;47.812;9.274;2023-12-28T12:28:51;21.95;;;13.93;;
19754;SDS011;10036;47.812;9.274;2023-12-28T12:31:18;19.13;;;12.75;;
19754;SDS011;10036;47.812;9.274;2023-12-28T12:33:46;18.52;;;12.77;;
19754;SDS011;10036;47.812;9.274;2023-12-28T12:36:13;18.67;;;13.25;;
19754;SDS011;10036;47.812;9.274;2023-12-28T12:38:41;16.60;;;12.55;;
19754;SDS011;10036;47.812;9.274;2023-12-28T12:41:09;15.80;;;10.95;;
19754;SDS011;10036;47.812;9.274;2023-12-28T12:43:37;14.38;;;9.93;;
19754;SDS011;10036;47.812;9.274;2023-12-28T12:46:06;15.45;;;9.88;;
19754;SDS011;10036;47.812;9.274;2023-12-28T12:48:33;13.02;;;9.57;;
19754;SDS011;10036;47.812;9.274;2023-12-28T12:51:01;11.68;;;9.20;;
19754;SDS011;10036;47.812;9.274;2023-12-28T12:53:32;13.43;;;9.23;;
19754;SDS011;10036;47.812;9.274;2023-12-28T12:56:00;14.52;;;9.82;;
19754;SDS011;10036;47.812;9.274;2023-12-28T12:58:30;14.13;;;9.50;;
19754;SDS011;10036;47.812;9.274;2023-12-28T13:00:57;18.73;;;11.73;;
19754;SDS011;10036;47.812;9.274;2023-12-28T13:03:27;19.63;;;11.38;;
19754;SDS011;10036;47.812;9.274;2023-12-28T13:05:55;15.50;;;10.40;;
19754;SDS011;10036;47.812;9.274;2023-12-28T13:08:22;13.80;;;9.60;;
19754;SDS011;10036;47.812;9.274;2023-12-28T13:10:49;13.90;;;10.45;;
19754;SDS011;10036;47.812;9.274;2023-12-28T13:13:18;16.60;;;10.85;;
19754;SDS011;10036;47.812;9.274;2023-12-28T13:15:45;16.38;;;11.38;;
19754;SDS011;10036;47.812;9.274;2023-12-28T13:18:12;17.95;;;13.00;;
19754;SDS011;10036;47.812;9.274;2023-12-28T13:20:39;18.45;;;13.18;;
19754;SDS011;10036;47.812;9.274;2023-12-28T13:23:07;38.97;;;20.90;;
19754;SDS011;10036;47.812;9.274;2023-12-28T13:25:34;25.50;;;16.10;;
19754;SDS011;10036;47.812;9.274;2023-12-28T13:28:01;25.02;;;15.90;;
19754;SDS011;10036;47.812;9.274;2023-12-28T13:30:30;22.33;;;11.93;;
19754;SDS011;10036;47.812;9.274;2023-12-28T13:36:18;16.38;;;11.02;;
19754;SDS011;10036;47.812;9.274;2023-12-28T13:38:45;17.52;;;10.88;;
19754;SDS011;10036;47.812;9.274;2023-12-28T13:41:13;16.90;;;10.73;;
19754;SDS011;10036;47.812;9.274;2023-12-28T13:43:40;19.50;;;9.70;;
19754;SDS011;10036;47.812;9.274;2023-12-28T13:46:08;14.43;;;9.60;;
19754;SDS011;10036;47.812;9.274;2023-12-28T13:48:35;15.40;;;9.90;;
19754;SDS011;10036;47.812;9.274;2023-12-28T13:51:04;17.27;;;10.15;;
19754;SDS011;10036;47.812;9.274;2023-12-28T13:53:31;17.10;;;10.27;;
19754;SDS011;10036;47.812;9.274;2023-12-28T13:56:00;15.45;;;9.77;;
19754;SDS011;10036;47.812;9.274;2023-12-28T13:58:28;12.93;;;8.93;;
19754;SDS011;10036;47.812;9.274;2023-12-28T14:00:55;16.80;;;10.30;;
19754;SDS011;10036;47.812;9.274;2023-12-28T14:03:23;16.67;;;10.02;;
19754;SDS011;10036;47.812;9.274;2023-12-28T14:05:50;19.48;;;9.80;;
19754;SDS011;10036;47.812;9.274;2023-12-28T14:08:16;16.15;;;10.02;;
19754;SDS011;10036;47.812;9.274;2023-12-28T14:10:43;18.40;;;10.73;;
19754;SDS011;10036;47.812;9.274;2023-12-28T14:13:10;15.25;;;10.32;;
19754;SDS011;10036;47.812;9.274;2023-12-28T14:15:37;20.13;;;12.23;;
19754;SDS011;10036;47.812;9.274;2023-12-28T14:18:04;17.55;;;11.63;;
19754;SDS011;10036;47.812;9.274;2023-12-28T14:20:35;26.02;;;15.55;;
19754;SDS011;10036;47.812;9.274;2023-12-28T14:23:02;28.45;;;16.23;;
19754;SDS011;10036;47.812;9.274;2023-12-28T14:25:30;33.97;;;19.30;;
19754;SDS011;10036;47.812;9.274;2023-12-28T14:27:57;29.75;;;18.10;;
19754;SDS011;10036;47.812;9.274;2023-12-28T14:30:25;27.58;;;16.30;;
19754;SDS011;10036;47.812;9.274;2023-12-28T14:32:52;31.33;;;17.38;;
19754;SDS011;10036;47.812;9.274;2023-12-28T14:35:19;29.00;;;17.80;;